sensor_id;sensor_type;location;lat;lon;timestamp;pressure;altitude;pressure_sealevel;temperature;humidity
76156;BME280;64906;51.290;7.348;2023-02-28T00:00:12;99590.56;;;18.82;68.08
76156;BME280;64906;51.290;7.348;2023-02-28T00:02:39;99579.63;;;18.82;68.22
76156;BME280;64906;51.290;7.348;2023-02-28T00:05:08;99568.13;;;18.80;67.98
76156;BME280;64906;51.290;7.348;2023-02-28T00:07:34;99550.59;;;18.81;68.13
76156;BME280;64906;51.290;7.348;2023-02-28T00:10:00;99555.00;;;18.82;68.27
76156;BME280;64906;51.290;7.348;2023-02-28T00:12:27;99565.13;;;18.82;68.37
76156;BME280;64906;51.290;7.348;2023-02-28T00:14:53;99559.66;;;18.82;68.44
76156;BME280;64906;51.290;7.348;2023-02-28T00:17:19;99553.34;;;18.81;68.31
76156;BME280;64906;51.290;7.348;2023-02-28T00:19:51;99559.66;;;18.82;68.24
76156;BME280;64906;51.290;7.348;2023-02-28T00:22:19;99561.81;;;18.80;68.04
76156;BME280;64906;51.290;7.348;2023-02-28T00:24:45;99568.94;;;18.81;68.35
76156;BME280;64906;51.290;7.348;2023-02-28T00:27:11;99560.19;;;18.79;67.99
76156;BME280;64906;51.290;7.348;2023-02-28T00:29:37;99558.25;;;18.79;68.17
76156;BME280;64906;51.290;7.348;2023-02-28T00:32:04;99556.59;;;18.78;68.07
76156;BME280;64906;51.290;7.348;2023-02-28T00:34:30;99555.78;;;18.77;68.42
76156;BME280;64906;51.290;7.348;2023-02-28T00:36:56;99557.72;;;18.77;68.25
76156;BME280;64906;51.290;7.348;2023-02-28T00:39:22;99557.72;;;18.77;68.35
76156;BME280;64906;51.290;7.348;2023-02-28T00:41:48;99557.72;;;18.77;68.36
76156;BME280;64906;51.290;7.348;2023-02-28T00:44:13;99557.72;;;18.77;68.52
76156;BME280;64906;51.290;7.348;2023-02-28T00:46:39;99565.34;;;18.75;68.47
76156;BME280;64906;51.290;7.348;2023-02-28T00:49:05;99570.81;;;18.75;68.14
76156;BME280;64906;51.290;7.348;2023-02-28T00:51:31;99573.56;;;18.75;68.10
76156;BME280;64906;51.290;7.348;2023-02-28T00:53:57;99580.13;;;18.74;68.51
76156;BME280;64906;51.290;7.348;2023-02-28T00:56:22;99577.13;;;18.76;68.10
76156;BME280;64906;51.290;7.348;2023-02-28T00:58:54;99582.84;;;18.74;68.01
76156;BME280;64906;51.290;7.348;2023-02-28T01:01:20;99577.38;;;18.74;68.24
76156;BME280;64906;51.290;7.348;2023-02-28T01:03:46;99574.66;;;18.74;68.36
76156;BME280;64906;51.290;7.348;2023-02-28T01:06:12;99582.84;;;18.74;68.33
76156;BME280;64906;51.290;7.348;2023-02-28T01:08:37;99581.44;;;18.71;68.37
76156;BME280;64906;51.290;7.348;2023-02-28T01:11:09;99573.25;;;18.71;68.27
76156;BME280;64906;51.290;7.348;2023-02-28T01:13:36;99564.19;;;18.71;68.16
76156;BME280;64906;51.290;7.348;2023-02-28T01:16:02;99566.94;;;18.71;68.48
76156;BME280;64906;51.290;7.348;2023-02-28T01:18:28;99564.19;;;18.71;68.26
76156;BME280;64906;51.290;7.348;2023-02-28T01:20:54;99552.47;;;18.70;68.43
76156;BME280;64906;51.290;7.348;2023-02-28T01:23:21;99552.47;;;18.70;68.31
76156;BME280;64906;51.290;7.348;2023-02-28T01:25:50;99545.91;;;18.71;68.33
76156;BME280;64906;51.290;7.348;2023-02-28T01:28:16;99551.63;;;18.70;68.45
76156;BME280;64906;51.290;7.348;2023-02-28T01:30:50;99547.78;;;18.71;68.48
76156;BME280;64906;51.290;7.348;2023-02-28T01:33:16;99537.94;;;18.70;68.57
76156;BME280;64906;51.290;7.348;2023-02-28T01:35:42;99539.06;;;18.69;68.34
76156;BME280;64906;51.290;7.348;2023-02-28T01:38:08;99528.13;;;18.69;68.54
76156;BME280;64906;51.290;7.348;2023-02-28T01:40:35;99529.75;;;18.70;68.20
76156;BME280;64906;51.290;7.348;2023-02-28T01:43:01;99529.75;;;18.70;68.18
76156;BME280;64906;51.290;7.348;2023-02-28T01:45:29;99536.06;;;18.70;68.53
76156;BME280;64906;51.290;7.348;2023-02-28T01:48:04;99538.22;;;18.68;68.18
76156;BME280;64906;51.290;7.348;2023-02-28T01:50:35;99526.44;;;18.68;68.35
76156;BME280;64906;51.290;7.348;2023-02-28T01:53:05;99523.72;;;18.68;68.54
76156;BME280;64906;51.290;7.348;2023-02-28T01:55:33;99514.66;;;18.67;68.29
76156;BME280;64906;51.290;7.348;2023-02-28T01:58:02;99513.88;;;18.67;68.58
76156;BME280;64906;51.290;7.348;2023-02-28T02:00:30;99513.88;;;18.67;68.51
76156;BME280;64906;51.290;7.348;2023-02-28T02:02:59;99508.66;;;18.65;68.26
76156;BME280;64906;51.290;7.348;2023-02-28T02:05:29;99496.91;;;18.65;68.71
76156;BME280;64906;51.290;7.348;2023-02-28T02:08:01;99496.06;;;18.64;68.40
76156;BME280;64906;51.290;7.348;2023-02-28T02:10:39;99502.09;;;18.66;68.29
76156;BME280;64906;51.290;7.348;2023-02-28T02:18:47;99501.25;;;18.66;68.58
76156;BME280;64906;51.290;7.348;2023-02-28T02:38:21;99495.25;;;18.64;68.27
76156;BME280;64906;51.290;7.348;2023-02-28T02:43:40;99488.94;;;18.63;68.40
76156;BME280;64906;51.290;7.348;2023-02-28T02:46:23;99496.06;;;18.64;68.37
76156;BME280;64906;51.290;7.348;2023-02-28T02:48:51;99488.69;;;18.65;68.36
76156;BME280;64906;51.290;7.348;2023-02-28T02:51:22;99492.53;;;18.64;68.08
76156;BME280;64906;51.290;7.348;2023-02-28T02:53:55;99498.00;;;18.64;68.08
76156;BME280;64906;51.290;7.348;2023-02-28T02:56:26;99498.78;;;18.64;68.04
76156;BME280;64906;51.290;7.348;2023-02-28T02:58:56;99498.78;;;18.64;68.32
76156;BME280;64906;51.290;7.348;2023-02-28T03:01:26;99496.91;;;18.65;68.00
76156;BME280;64906;51.290;7.348;2023-02-28T03:03:59;99487.06;;;18.64;68.35
76156;BME280;64906;51.290;7.348;2023-02-28T03:06:26;99479.38;;;18.66;68.27
76156;BME280;64906;51.290;7.348;2023-02-28T03:08:53;99483.22;;;18.65;68.27
76156;BME280;64906;51.290;7.348;2023-02-28T03:11:19;99483.22;;;18.65;67.97
76156;BME280;64906;51.290;7.348;2023-02-28T03:19:23;99488.94;;;18.63;68.18
76156;BME280;64906;51.290;7.348;2023-02-28T03:33:24;99483.75;;;18.62;68.03
76156;BME280;64906;51.290;7.348;2023-02-28T03:35:56;99471.97;;;18.61;68.07
76156;BME280;64906;51.290;7.348;2023-02-28T03:38:31;99478.28;;;18.62;68.24
76156;BME280;64906;51.290;7.348;2023-02-28T03:41:21;99473.66;;;18.62;68.29
76156;BME280;64906;51.290;7.348;2023-02-28T03:43:56;99465.69;;;18.61;68.40
76156;BME280;64906;51.290;7.348;2023-02-28T03:46:26;99462.94;;;18.61;68.13
76156;BME280;64906;51.290;7.348;2023-02-28T03:49:02;99464.63;;;18.62;68.30
76156;BME280;64906;51.290;7.348;2023-02-28T03:51:30;99457.25;;;18.62;67.94
76156;BME280;64906;51.290;7.348;2023-02-28T03:54:01;99456.41;;;18.62;68.10
76156;BME280;64906;51.290;7.348;2023-02-28T03:56:43;99461.88;;;18.62;68.27
76156;BME280;64906;51.290;7.348;2023-02-28T03:59:22;99465.19;;;18.64;67.95
76156;BME280;64906;51.290;7.348;2023-02-28T04:01:51;99467.91;;;18.64;67.81
76156;BME280;64906;51.290;7.348;2023-02-28T04:04:18;99462.44;;;18.64;67.91
76156;BME280;64906;51.290;7.348;2023-02-28T04:06:44;99460.78;;;18.63;68.10
76156;BME280;64906;51.290;7.348;2023-02-28T04:09:13;99468.19;;;18.62;68.13
76156;BME280;64906;51.290;7.348;2023-02-28T04:11:45;99450.09;;;18.61;67.70
76156;BME280;64906;51.290;7.348;2023-02-28T04:14:12;99455.56;;;18.61;68.22
76156;BME280;64906;51.290;7.348;2023-02-28T04:16:40;99457.47;;;18.61;68.03
76156;BME280;64906;51.290;7.348;2023-02-28T04:19:09;99456.69;;;18.60;67.97
76156;BME280;64906;51.290;7.348;2023-02-28T04:21:41;99456.41;;;18.62;68.11
76156;BME280;64906;51.290;7.348;2023-02-28T04:24:09;99459.97;;;18.62;68.04
76156;BME280;64906;51.290;7.348;2023-02-28T04:26:45;99449.28;;;18.61;68.10
76156;BME280;64906;51.290;7.348;2023-02-28T04:29:12;99448.47;;;18.60;68.25
76156;BME280;64906;51.290;7.348;2023-02-28T04:31:39;99451.19;;;18.60;67.98
76156;BME280;64906;51.290;7.348;2023-02-28T04:34:06;99450.94;;;18.62;68.13
76156;BME280;64906;51.290;7.348;2023-02-28T04:36:32;99451.78;;;18.62;68.22
76156;BME280;64906;51.290;7.348;2023-02-28T04:38:58;99446.53;;;18.61;67.90
76156;BME280;64906;51.290;7.348;2023-02-28T04:41:24;99450.09;;;18.61;67.95
76156;BME280;64906;51.290;7.348;2023-02-28T04:43:53;99442.16;;;18.60;68.15
76156;BME280;64906;51.290;7.348;2023-02-28T04:46:19;99447.09;;;18.63;67.90
76156;BME280;64906;51.290;7.348;2023-02-28T04:48:46;99444.63;;;18.61;68.33
76156;BME280;64906;51.290;7.348;2023-02-28T04:51:14;99441.06;;;18.61;68.28
76156;BME280;64906;51.290;7.348;2023-02-28T04:53:41;99441.06;;;18.61;68.18
76156;BME280;64906;51.290;7.348;2023-02-28T04:56:11;99431.78;;;18.62;68.05
76156;BME280;64906;51.290;7.348;2023-02-28T04:58:38;99439.16;;;18.61;67.93
76156;BME280;64906;51.290;7.348;2023-02-28T05:01:17;99428.50;;;18.60;68.01
76156;BME280;64906;51.290;7.348;2023-02-28T05:03:44;99436.44;;;18.61;68.18
76156;BME280;64906;51.290;7.348;2023-02-28T05:06:11;99434.78;;;18.60;68.26
76156;BME280;64906;51.290;7.348;2023-02-28T05:08:37;99429.31;;;18.60;68.20
76156;BME280;64906;51.290;7.348;2023-02-28T05:11:28;99435.06;;;18.59;68.03
76156;BME280;64906;51.290;7.348;2023-02-28T05:13:52;99432.06;;;18.60;68.20
76156;BME280;64906;51.290;7.348;2023-02-28T05:16:19;99432.88;;;18.61;67.83
76156;BME280;64906;51.290;7.348;2023-02-28T05:18:46;99427.66;;;18.59;67.73
76156;BME280;64906;51.290;7.348;2023-02-28T05:23:50;99426.59;;;18.60;67.95
76156;BME280;64906;51.290;7.348;2023-02-28T05:26:17;99429.59;;;18.59;68.08
76156;BME280;64906;51.290;7.348;2023-02-28T05:28:43;99433.97;;;18.60;67.80
76156;BME280;64906;51.290;7.348;2023-02-28T05:31:13;99450.38;;;18.60;68.11
76156;BME280;64906;51.290;7.348;2023-02-28T05:33:39;99463.22;;;18.59;68.07
76156;BME280;64906;51.290;7.348;2023-02-28T05:36:05;99457.75;;;18.59;68.21
76156;BME280;64906;51.290;7.348;2023-02-28T05:38:32;99444.06;;;18.59;68.16
76156;BME280;64906;51.290;7.348;2023-02-28T05:40:58;99447.91;;;18.58;68.09
76156;BME280;64906;51.290;7.348;2023-02-28T05:43:24;99456.09;;;18.58;67.71
76156;BME280;64906;51.290;7.348;2023-02-28T05:45:49;99464.31;;;18.58;67.77
76156;BME280;64906;51.290;7.348;2023-02-28T05:48:15;99468.69;;;18.59;68.00
76156;BME280;64906;51.290;7.348;2023-02-28T05:50:42;99471.69;;;18.58;67.78
76156;BME280;64906;51.290;7.348;2023-02-28T05:53:10;99477.16;;;18.58;67.77
76156;BME280;64906;51.290;7.348;2023-02-28T05:55:36;99483.72;;;18.57;68.21
76156;BME280;64906;51.290;7.348;2023-02-28T05:58:02;99488.09;;;18.58;68.14
76156;BME280;64906;51.290;7.348;2023-02-28T06:00:28;99487.28;;;18.57;68.25
76156;BME280;64906;51.290;7.348;2023-02-28T06:02:54;99486.19;;;18.58;67.92
76156;BME280;64906;51.290;7.348;2023-02-28T06:05:23;99497.38;;;18.57;68.28
76156;BME280;64906;51.290;7.348;2023-02-28T06:07:50;99490.03;;;18.57;67.87
76156;BME280;64906;51.290;7.348;2023-02-28T06:10:16;99494.66;;;18.57;67.79
76156;BME280;64906;51.290;7.348;2023-02-28T06:12:42;99493.81;;;18.56;67.84
76156;BME280;64906;51.290;7.348;2023-02-28T06:15:17;99488.09;;;18.58;68.05
76156;BME280;64906;51.290;7.348;2023-02-28T06:17:43;99487.28;;;18.57;68.15
76156;BME280;64906;51.290;7.348;2023-02-28T06:20:10;99496.56;;;18.56;68.16
76156;BME280;64906;51.290;7.348;2023-02-28T06:22:39;99488.91;;;18.58;68.09
76156;BME280;64906;51.290;7.348;2023-02-28T06:25:06;99497.38;;;18.57;68.14
76156;BME280;64906;51.290;7.348;2023-02-28T06:27:33;99494.91;;;18.55;67.73
76156;BME280;64906;51.290;7.348;2023-02-28T06:29:59;99494.91;;;18.55;68.14
76156;BME280;64906;51.290;7.348;2023-02-28T06:32:26;99500.38;;;18.55;67.89
76156;BME280;64906;51.290;7.348;2023-02-28T06:34:51;99494.91;;;18.55;67.98
76156;BME280;64906;51.290;7.348;2023-02-28T06:37:18;99506.69;;;18.56;67.91
76156;BME280;64906;51.290;7.348;2023-02-28T06:39:45;99509.44;;;18.56;67.95
76156;BME280;64906;51.290;7.348;2023-02-28T06:42:12;99506.69;;;18.56;68.18
76156;BME280;64906;51.290;7.348;2023-02-28T06:44:38;99509.16;;;18.57;67.95
76156;BME280;64906;51.290;7.348;2023-02-28T06:47:06;99519.53;;;18.55;67.97
76156;BME280;64906;51.290;7.348;2023-02-28T06:49:33;99526.91;;;18.55;68.22
76156;BME280;64906;51.290;7.348;2023-02-28T06:52:00;99523.31;;;18.54;68.06
76156;BME280;64906;51.290;7.348;2023-02-28T06:54:25;99529.63;;;18.55;67.95
76156;BME280;64906;51.290;7.348;2023-02-28T06:56:52;99537.84;;;18.55;67.78
76156;BME280;64906;51.290;7.348;2023-02-28T06:59:19;99535.94;;;18.55;67.85
76156;BME280;64906;51.290;7.348;2023-02-28T07:01:45;99537.84;;;18.55;68.05
76156;BME280;64906;51.290;7.348;2023-02-28T07:04:11;99546.88;;;18.55;68.10
76156;BME280;64906;51.290;7.348;2023-02-28T07:06:38;99547.94;;;18.54;68.04
76156;BME280;64906;51.290;7.348;2023-02-28T07:09:04;99548.78;;;18.55;68.13
76156;BME280;64906;51.290;7.348;2023-02-28T07:11:30;99545.78;;;18.56;67.97
76156;BME280;64906;51.290;7.348;2023-02-28T07:13:56;99554.81;;;18.57;67.94
76156;BME280;64906;51.290;7.348;2023-02-28T07:16:24;99543.88;;;18.57;67.74
76156;BME280;64906;51.290;7.348;2023-02-28T07:18:52;99550.44;;;18.56;67.95
76156;BME280;64906;51.290;7.348;2023-02-28T07:21:19;99561.38;;;18.56;67.86
76156;BME280;64906;51.290;7.348;2023-02-28T07:23:46;99560.53;;;18.55;68.04
76156;BME280;64906;51.290;7.348;2023-02-28T07:26:14;99562.44;;;18.55;68.00
76156;BME280;64906;51.290;7.348;2023-02-28T07:28:42;99571.47;;;18.55;68.06
76156;BME280;64906;51.290;7.348;2023-02-28T07:31:08;99573.13;;;18.56;67.69
76156;BME280;64906;51.290;7.348;2023-02-28T07:33:35;99580.53;;;18.56;67.76
76156;BME280;64906;51.290;7.348;2023-02-28T07:36:05;99570.66;;;18.55;67.83
76156;BME280;64906;51.290;7.348;2023-02-28T07:38:36;99575.84;;;18.56;67.86
76156;BME280;64906;51.290;7.348;2023-02-28T07:41:03;99580.53;;;18.56;68.14
76156;BME280;64906;51.290;7.348;2023-02-28T07:43:31;99584.06;;;18.56;68.15
76156;BME280;64906;51.290;7.348;2023-02-28T07:46:06;99578.84;;;18.55;67.86
76156;BME280;64906;51.290;7.348;2023-02-28T07:48:33;99589.78;;;18.55;67.92
76156;BME280;64906;51.290;7.348;2023-02-28T07:50:59;99587.06;;;18.55;67.95
76156;BME280;64906;51.290;7.348;2023-02-28T07:53:26;99588.94;;;18.54;68.06
76156;BME280;64906;51.290;7.348;2023-02-28T07:55:57;99595.25;;;18.55;67.77
76156;BME280;64906;51.290;7.348;2023-02-28T07:58:24;99601.56;;;18.55;67.76
76156;BME280;64906;51.290;7.348;2023-02-28T08:00:50;99609.50;;;18.57;67.99
76156;BME280;64906;51.290;7.348;2023-02-28T08:03:18;99607.88;;;18.56;67.66
76156;BME280;64906;51.290;7.348;2023-02-28T08:05:47;99609.25;;;18.58;67.97
76156;BME280;64906;51.290;7.348;2023-02-28T08:08:13;99617.44;;;18.58;67.77
76156;BME280;64906;51.290;7.348;2023-02-28T08:10:39;99615.53;;;18.59;68.00
76156;BME280;64906;51.290;7.348;2023-02-28T08:13:06;99620.19;;;18.58;67.62
76156;BME280;64906;51.290;7.348;2023-02-28T08:15:35;99626.47;;;18.59;67.75
76156;BME280;64906;51.290;7.348;2023-02-28T08:18:02;99619.34;;;18.58;67.96
76156;BME280;64906;51.290;7.348;2023-02-28T08:20:28;99622.91;;;18.58;67.74
76156;BME280;64906;51.290;7.348;2023-02-28T08:22:54;99623.75;;;18.59;67.59
76156;BME280;64906;51.290;7.348;2023-02-28T08:25:20;99618.28;;;18.59;67.59
76156;BME280;64906;51.290;7.348;2023-02-28T08:27:46;99622.66;;;18.60;67.53
76156;BME280;64906;51.290;7.348;2023-02-28T08:30:14;99617.19;;;18.60;67.76
76156;BME280;64906;51.290;7.348;2023-02-28T08:32:40;99617.19;;;18.60;67.73
76156;BME280;64906;51.290;7.348;2023-02-28T08:35:07;99610.06;;;18.59;67.68
76156;BME280;64906;51.290;7.348;2023-02-28T08:37:34;99625.13;;;18.61;67.66
76156;BME280;64906;51.290;7.348;2023-02-28T08:40:00;99624.28;;;18.61;67.82
76156;BME280;64906;51.290;7.348;2023-02-28T08:42:26;99633.59;;;18.60;67.71
76156;BME280;64906;51.290;7.348;2023-02-28T08:44:53;99632.50;;;18.61;67.72
76156;BME280;64906;51.290;7.348;2023-02-28T08:47:19;99633.91;;;18.63;67.70
76156;BME280;64906;51.290;7.348;2023-02-28T08:49:46;99642.66;;;18.65;67.69
76156;BME280;64906;51.290;7.348;2023-02-28T08:52:12;99639.69;;;18.67;67.63
76156;BME280;64906;51.290;7.348;2023-02-28T08:54:38;99641.56;;;18.66;67.30
76156;BME280;64906;51.290;7.348;2023-02-28T08:57:04;99647.88;;;18.67;67.33
76156;BME280;64906;51.290;7.348;2023-02-28T08:59:30;99650.09;;;18.70;67.39
76156;BME280;64906;51.290;7.348;2023-02-28T09:01:56;99659.41;;;18.69;67.37
76156;BME280;64906;51.290;7.348;2023-02-28T09:04:21;99661.03;;;18.70;67.54
76156;BME280;64906;51.290;7.348;2023-02-28T09:06:47;99662.66;;;18.71;67.56
76156;BME280;64906;51.290;7.348;2023-02-28T09:09:15;99671.97;;;18.70;67.65
76156;BME280;64906;51.290;7.348;2023-02-28T09:11:40;99669.22;;;18.70;67.31
76156;BME280;64906;51.290;7.348;2023-02-28T09:14:06;99670.88;;;18.71;67.40
76156;BME280;64906;51.290;7.348;2023-02-28T09:16:33;99677.44;;;18.70;67.51
76156;BME280;64906;51.290;7.348;2023-02-28T09:19:00;99671.97;;;18.70;67.51
76156;BME280;64906;51.290;7.348;2023-02-28T09:21:26;99674.44;;;18.71;67.30
76156;BME280;64906;51.290;7.348;2023-02-28T09:23:52;99676.91;;;18.73;67.51
76156;BME280;64906;51.290;7.348;2023-02-28T09:26:24;99676.66;;;18.74;67.21
76156;BME280;64906;51.290;7.348;2023-02-28T09:28:49;99681.84;;;18.76;67.05
76156;BME280;64906;51.290;7.348;2023-02-28T09:31:19;99679.66;;;18.73;67.24
76156;BME280;64906;51.290;7.348;2023-02-28T09:33:50;99679.06;;;18.71;67.18
76156;BME280;64906;51.290;7.348;2023-02-28T09:36:17;99679.06;;;18.71;67.18
76156;BME280;64906;51.290;7.348;2023-02-28T09:38:44;99687.03;;;18.72;67.61
76156;BME280;64906;51.290;7.348;2023-02-28T09:41:17;99701.53;;;18.73;67.49
76156;BME280;64906;51.290;7.348;2023-02-28T09:43:47;99698.78;;;18.73;67.05
76156;BME280;64906;51.290;7.348;2023-02-28T09:48:48;99705.97;;;18.79;67.04
76156;BME280;64906;51.290;7.348;2023-02-28T09:51:30;99697.53;;;18.81;67.13
76156;BME280;64906;51.290;7.348;2023-02-28T09:53:58;99709.00;;;18.83;67.17
76156;BME280;64906;51.290;7.348;2023-02-28T09:56:36;99695.59;;;18.81;67.10
76156;BME280;64906;51.290;7.348;2023-02-28T10:04:54;99716.94;;;18.84;67.07
76156;BME280;64906;51.290;7.348;2023-02-28T10:07:50;99725.47;;;18.88;67.22
76156;BME280;64906;51.290;7.348;2023-02-28T10:10:26;99714.25;;;18.89;67.24
76156;BME280;64906;51.290;7.348;2023-02-28T10:12:56;99717.56;;;18.91;66.96
76156;BME280;64906;51.290;7.348;2023-02-28T10:15:34;99714.00;;;18.91;67.16
76156;BME280;64906;51.290;7.348;2023-02-28T10:18:04;99708.53;;;18.91;66.94
76156;BME280;64906;51.290;7.348;2023-02-28T10:20:34;99707.78;;;18.95;66.81
76156;BME280;64906;51.290;7.348;2023-02-28T10:23:38;99714.63;;;18.98;66.63
76156;BME280;64906;51.290;7.348;2023-02-28T10:26:03;99699.31;;;18.97;66.81
76156;BME280;64906;51.290;7.348;2023-02-28T10:28:31;99701.78;;;18.98;66.68
76156;BME280;64906;51.290;7.348;2023-02-28T10:30:57;99703.69;;;18.98;66.85
76156;BME280;64906;51.290;7.348;2023-02-28T10:33:28;99701.50;;;19.00;66.74
76156;BME280;64906;51.290;7.348;2023-02-28T10:35:54;99694.63;;;18.97;67.01
76156;BME280;64906;51.290;7.348;2023-02-28T10:38:23;99697.94;;;18.99;66.74
76156;BME280;64906;51.290;7.348;2023-02-28T10:40:50;99689.72;;;18.99;67.11
76156;BME280;64906;51.290;7.348;2023-02-28T10:55:40;99687.00;;;18.99;66.96
76156;BME280;64906;51.290;7.348;2023-02-28T10:58:24;99692.47;;;18.99;66.84
76156;BME280;64906;51.290;7.348;2023-02-28T11:00:51;99672.25;;;19.00;67.13
76156;BME280;64906;51.290;7.348;2023-02-28T11:03:32;99684.25;;;18.99;67.18
76156;BME280;64906;51.290;7.348;2023-02-28T11:06:07;99668.94;;;18.98;67.09
76156;BME280;64906;51.290;7.348;2023-02-28T11:11:15;99664.53;;;18.97;67.18
76156;BME280;64906;51.290;7.348;2023-02-28T11:13:44;99664.00;;;18.95;67.17
76156;BME280;64906;51.290;7.348;2023-02-28T11:16:12;99671.09;;;18.96;67.29
76156;BME280;64906;51.290;7.348;2023-02-28T11:18:48;99670.56;;;18.99;66.93
76156;BME280;64906;51.290;7.348;2023-02-28T11:21:31;99665.09;;;18.99;66.86
76156;BME280;64906;51.290;7.348;2023-02-28T11:24:23;99663.50;;;19.03;66.84
76156;BME280;64906;51.290;7.348;2023-02-28T11:26:50;99668.72;;;19.05;67.11
76156;BME280;64906;51.290;7.348;2023-02-28T11:29:19;99656.94;;;19.04;66.84
76156;BME280;64906;51.290;7.348;2023-02-28T11:32:13;99659.72;;;19.09;66.56
76156;BME280;64906;51.290;7.348;2023-02-28T11:34:42;99654.25;;;19.09;66.65
76156;BME280;64906;51.290;7.348;2023-02-28T11:37:17;99641.91;;;19.07;67.17
76156;BME280;64906;51.290;7.348;2023-02-28T11:39:44;99654.25;;;19.09;66.65
76156;BME280;64906;51.290;7.348;2023-02-28T11:45:32;99642.16;;;19.05;66.81
76156;BME280;64906;51.290;7.348;2023-02-28T11:48:24;99639.72;;;19.09;66.81
76156;BME280;64906;51.290;7.348;2023-02-28T11:53:43;99643.28;;;19.09;67.08
76156;BME280;64906;51.290;7.348;2023-02-28T11:56:33;99633.19;;;19.10;67.08
76156;BME280;64906;51.290;7.348;2023-02-28T11:59:21;99638.38;;;19.11;66.94
76156;BME280;64906;51.290;7.348;2023-02-28T12:05:10;99639.50;;;19.15;66.78
76156;BME280;64906;51.290;7.348;2023-02-28T12:07:58;99646.91;;;19.15;66.98
76156;BME280;64906;51.290;7.348;2023-02-28T12:10:33;99651.53;;;19.14;67.01
76156;BME280;64906;51.290;7.348;2023-02-28T12:13:16;99652.38;;;19.15;66.94
76156;BME280;64906;51.290;7.348;2023-02-28T12:27:28;99627.75;;;19.15;67.32
76156;BME280;64906;51.290;7.348;2023-02-28T12:30:30;99631.28;;;19.15;67.55
76156;BME280;64906;51.290;7.348;2023-02-28T12:35:49;99630.78;;;19.18;67.26
76156;BME280;64906;51.290;7.348;2023-02-28T12:38:20;99623.94;;;19.21;67.45
76156;BME280;64906;51.290;7.348;2023-02-28T12:41:05;99632.41;;;19.19;67.13
76156;BME280;64906;51.290;7.348;2023-02-28T12:43:46;99628.31;;;19.22;67.58
76156;BME280;64906;51.290;7.348;2023-02-28T12:46:21;99617.38;;;19.22;67.40
76156;BME280;64906;51.290;7.348;2023-02-28T12:48:53;99614.34;;;19.23;68.26
76156;BME280;64906;51.290;7.348;2023-02-28T12:51:23;99610.28;;;19.26;68.30
76156;BME280;64906;51.290;7.348;2023-02-28T12:54:02;99608.38;;;19.26;68.07
76156;BME280;64906;51.290;7.348;2023-02-28T12:56:54;99605.38;;;19.28;68.29
76156;BME280;64906;51.290;7.348;2023-02-28T13:10:48;99588.22;;;19.37;68.63
76156;BME280;64906;51.290;7.348;2023-02-28T13:13:22;99580.00;;;19.37;68.46
76156;BME280;64906;51.290;7.348;2023-02-28T13:16:08;99581.91;;;19.37;68.42
76156;BME280;64906;51.290;7.348;2023-02-28T13:18:44;99580.00;;;19.37;68.78
76156;BME280;64906;51.290;7.348;2023-02-28T13:21:29;99571.78;;;19.37;69.02
76156;BME280;64906;51.290;7.348;2023-02-28T13:23:58;99567.69;;;19.40;68.79
76156;BME280;64906;51.290;7.348;2023-02-28T13:31:24;99556.47;;;19.46;68.93
76156;BME280;64906;51.290;7.348;2023-02-28T13:38:50;99550.22;;;19.51;69.23
76156;BME280;64906;51.290;7.348;2023-02-28T13:44:14;99539.53;;;19.54;68.63
76156;BME280;64906;51.290;7.348;2023-02-28T13:49:28;99531.88;;;19.56;69.20
76156;BME280;64906;51.290;7.348;2023-02-28T14:06:25;99522.03;;;19.60;69.02
76156;BME280;64906;51.290;7.348;2023-02-28T14:11:27;99512.13;;;19.54;69.38
76156;BME280;64906;51.290;7.348;2023-02-28T14:13:53;99506.66;;;19.54;69.73
76156;BME280;64906;51.290;7.348;2023-02-28T14:16:28;99505.59;;;19.55;69.68
76156;BME280;64906;51.290;7.348;2023-02-28T14:22:32;99485.31;;;19.56;69.51
76156;BME280;64906;51.290;7.348;2023-02-28T14:27:58;99487.00;;;19.62;68.92
76156;BME280;64906;51.290;7.348;2023-02-28T14:41:22;99482.59;;;19.66;69.08
76156;BME280;64906;51.290;7.348;2023-02-28T14:43:53;99473.28;;;19.67;68.97
76156;BME280;64906;51.290;7.348;2023-02-28T14:46:20;99484.81;;;19.69;68.84
76156;BME280;64906;51.290;7.348;2023-02-28T14:48:49;99478.25;;;19.70;68.90
76156;BME280;64906;51.290;7.348;2023-02-28T14:51:23;99481.00;;;19.75;69.22
76156;BME280;64906;51.290;7.348;2023-02-28T14:53:56;99479.63;;;19.78;69.12
76156;BME280;64906;51.290;7.348;2023-02-28T14:56:26;99471.13;;;19.79;68.90
76156;BME280;64906;51.290;7.348;2023-02-28T14:58:55;99457.69;;;19.73;69.50
76156;BME280;64906;51.290;7.348;2023-02-28T15:01:24;99465.09;;;19.82;68.88
76156;BME280;64906;51.290;7.348;2023-02-28T15:03:58;99463.75;;;19.90;68.66
76156;BME280;64906;51.290;7.348;2023-02-28T15:06:24;99459.09;;;19.90;69.04
76156;BME280;64906;51.290;7.348;2023-02-28T15:09:19;99461.03;;;19.90;69.00
76156;BME280;64906;51.290;7.348;2023-02-28T15:11:47;99464.28;;;19.92;68.80
76156;BME280;64906;51.290;7.348;2023-02-28T15:14:17;99453.09;;;19.93;68.48
76156;BME280;64906;51.290;7.348;2023-02-28T15:16:46;99460.75;;;19.91;68.30
76156;BME280;64906;51.290;7.348;2023-02-28T15:19:23;99454.97;;;19.88;68.90
76156;BME280;64906;51.290;7.348;2023-02-28T15:22:01;99456.34;;;19.85;68.99
76156;BME280;64906;51.290;7.348;2023-02-28T15:24:38;99456.34;;;19.85;68.88
76156;BME280;64906;51.290;7.348;2023-02-28T15:27:15;99461.00;;;19.85;68.65
76156;BME280;64906;51.290;7.348;2023-02-28T15:29:48;99449.78;;;19.86;68.68
76156;BME280;64906;51.290;7.348;2023-02-28T15:35:34;99441.00;;;19.79;68.67
76156;BME280;64906;51.290;7.348;2023-02-28T15:38:03;99440.16;;;19.79;69.13
76156;BME280;64906;51.290;7.348;2023-02-28T15:40:36;99430.88;;;19.80;68.82
76156;BME280;64906;51.290;7.348;2023-02-28T15:43:04;99437.97;;;19.81;68.98
76156;BME280;64906;51.290;7.348;2023-02-28T15:45:56;99439.88;;;19.80;68.75
76156;BME280;64906;51.290;7.348;2023-02-28T15:48:53;99438.81;;;19.81;68.86
76156;BME280;64906;51.290;7.348;2023-02-28T15:51:25;99444.56;;;19.80;68.87